createdAt,value
2022-07-27T00:01:25.147Z,60.40
2022-07-27T00:03:54.403Z,49.53
2022-07-27T00:06:23.953Z,42.45
2022-07-27T00:08:52.969Z,37.83
2022-07-27T00:11:21.855Z,34.33
2022-07-27T00:13:51.187Z,39.75
2022-07-27T00:16:20.037Z,40.90
2022-07-27T00:18:49.008Z,35.10
2022-07-27T00:21:17.952Z,40.30
2022-07-27T00:23:46.858Z,35.45
2022-07-27T00:26:15.669Z,37.90
2022-07-27T00:28:44.839Z,38.65
2022-07-27T00:31:13.745Z,44.35
2022-07-27T00:33:42.918Z,43.22
2022-07-27T00:36:11.980Z,35.15
2022-07-27T00:38:41.038Z,36.25
2022-07-27T00:41:09.963Z,40.58
2022-07-27T00:43:53.679Z,37.58
2022-07-27T00:46:23.312Z,37.63
2022-07-27T00:48:52.861Z,41.90
2022-07-27T00:51:23.346Z,37.78
2022-07-27T00:53:54.782Z,39.28
2022-07-27T00:56:24.593Z,40.07
2022-07-27T00:58:55.141Z,37.33
2022-07-27T01:01:24.174Z,42.22
2022-07-27T01:03:53.303Z,38.42
2022-07-27T01:06:26.992Z,35.10
2022-07-27T01:09:18.468Z,41.22
2022-07-27T01:11:48.612Z,37.28
2022-07-27T01:14:19.149Z,38.85
2022-07-27T01:16:48.802Z,49.22
2022-07-27T01:19:17.520Z,41.97
2022-07-27T01:21:46.598Z,41.80
2022-07-27T01:24:15.917Z,49.03
2022-07-27T01:26:44.946Z,38.05
2022-07-27T01:29:14.286Z,38.03
2022-07-27T01:31:43.763Z,41.35
2022-07-27T01:34:12.911Z,43.17
2022-07-27T01:36:41.765Z,46.35
2022-07-27T01:39:11.234Z,45.28
2022-07-27T01:41:40.320Z,51.95
2022-07-27T01:44:09.365Z,49.55
2022-07-27T01:46:39.007Z,48.33
2022-07-27T01:49:08.392Z,59.88
2022-07-27T01:51:37.334Z,53.75
2022-07-27T01:54:07.133Z,55.28
2022-07-27T01:56:36.139Z,53.08
2022-07-27T01:59:08.294Z,53.75
2022-07-27T02:01:46.076Z,48.88
2022-07-27T02:04:15.254Z,48.85
2022-07-27T02:06:44.399Z,48.65
2022-07-27T02:09:13.562Z,53.55
2022-07-27T02:12:01.257Z,50.83
2022-07-27T02:14:30.135Z,41.72
2022-07-27T02:17:00.116Z,43.13
2022-07-27T02:19:29.517Z,48.95
2022-07-27T02:21:58.583Z,44.78
2022-07-27T02:24:29.630Z,46.10
2022-07-27T02:26:58.449Z,43.28
2022-07-27T02:29:27.565Z,42.83
2022-07-27T02:31:56.451Z,39.50
2022-07-27T02:34:25.556Z,83.95
2022-07-27T02:36:54.524Z,36.45
2022-07-27T02:39:23.437Z,38.22
2022-07-27T02:41:52.789Z,41.08
2022-07-27T02:44:22.091Z,42.70
2022-07-27T02:46:51.165Z,36.80
2022-07-27T02:49:20.199Z,38.58
2022-07-27T02:51:53.427Z,40.63
2022-07-27T02:54:25.544Z,35.92
2022-07-27T02:56:56.094Z,39.70
2022-07-27T02:59:25.386Z,35.40
2022-07-27T03:01:54.416Z,40.60
2022-07-27T03:04:24.313Z,43.35
2022-07-27T03:06:53.430Z,46.45
2022-07-27T03:09:32.867Z,52.08
2022-07-27T03:12:03.801Z,44.25
2022-07-27T03:14:32.845Z,42.15
2022-07-27T03:17:01.627Z,38.50
2022-07-27T03:19:30.743Z,40.00
2022-07-27T03:21:59.715Z,46.58
2022-07-27T03:24:28.462Z,40.33
2022-07-27T03:26:57.623Z,34.60
2022-07-27T03:29:29.378Z,36.55
2022-07-27T03:34:27.308Z,36.67
2022-07-27T03:36:56.462Z,36.30
2022-07-27T03:39:25.284Z,43.45
2022-07-27T03:41:54.281Z,36.42
2022-07-27T03:44:23.960Z,40.05
2022-07-27T03:46:53.010Z,35.22
2022-07-27T03:49:21.852Z,38.45
2022-07-27T03:51:51.240Z,35.28
2022-07-27T03:54:20.162Z,39.85
2022-07-27T03:56:49.419Z,48.10
2022-07-27T03:59:18.288Z,35.55
2022-07-27T04:01:47.481Z,41.38
2022-07-27T04:04:16.899Z,43.53
2022-07-27T04:06:45.859Z,42.28
2022-07-27T04:09:15.423Z,43.28
2022-07-27T04:11:51.077Z,32.75
2022-07-27T04:14:20.735Z,39.75
2022-07-27T04:16:50.576Z,43.35
2022-07-27T04:19:19.471Z,34.78
2022-07-27T04:21:48.830Z,38.10
2022-07-27T04:24:17.845Z,32.05
2022-07-27T04:26:47.124Z,30.77
2022-07-27T04:29:20.524Z,31.30
2022-07-27T04:31:50.579Z,31.33
2022-07-27T04:34:19.425Z,39.55
2022-07-27T04:36:48.399Z,31.45
2022-07-27T04:39:17.642Z,39.40
2022-07-27T04:41:46.753Z,29.30
2022-07-27T04:44:15.580Z,31.67
2022-07-27T04:46:44.725Z,35.35
2022-07-27T04:49:14.161Z,28.52
2022-07-27T04:51:47.010Z,33.25
2022-07-27T04:54:16.339Z,26.60
2022-07-27T04:56:45.187Z,41.47
2022-07-27T04:59:14.441Z,29.10
2022-07-27T05:01:43.889Z,30.48
2022-07-27T05:04:13.609Z,30.92
2022-07-27T05:06:42.865Z,28.95
2022-07-27T05:09:11.898Z,25.58
2022-07-27T05:11:41.282Z,29.45
2022-07-27T05:14:21.892Z,31.42
2022-07-27T05:16:52.081Z,37.17
2022-07-27T05:19:21.120Z,29.60
2022-07-27T05:21:50.069Z,30.30
2022-07-27T05:24:19.300Z,22.63
2022-07-27T05:26:48.290Z,29.73
2022-07-27T05:29:17.413Z,26.67
2022-07-27T05:31:46.616Z,28.10
2022-07-27T05:34:15.805Z,32.08
2022-07-27T05:36:44.767Z,29.63
2022-07-27T05:39:14.063Z,34.17
2022-07-27T05:41:43.772Z,29.55
2022-07-27T05:44:13.068Z,28.17
2022-07-27T05:46:42.324Z,32.75
2022-07-27T05:49:11.697Z,32.25
2022-07-27T05:51:41.093Z,34.38
2022-07-27T05:54:10.044Z,31.90
2022-07-27T05:56:39.797Z,34.28
2022-07-27T05:59:09.138Z,31.30
2022-07-27T06:01:39.085Z,29.63
2022-07-27T06:04:08.227Z,36.92
2022-07-27T06:06:55.604Z,30.27
2022-07-27T06:09:24.707Z,31.33
2022-07-27T06:11:53.626Z,36.05
2022-07-27T06:14:22.770Z,35.78
2022-07-27T06:16:52.179Z,32.85
2022-07-27T06:19:21.169Z,31.83
2022-07-27T06:21:53.553Z,36.17
2022-07-27T06:24:23.144Z,30.13
2022-07-27T06:26:52.310Z,25.33
2022-07-27T06:29:21.415Z,30.15
2022-07-27T06:31:50.498Z,31.33
2022-07-27T06:34:19.834Z,30.65
2022-07-27T06:36:48.803Z,30.20
2022-07-27T06:39:17.572Z,27.60
2022-07-27T06:41:46.706Z,33.63
2022-07-27T06:44:15.927Z,31.20
2022-07-27T06:46:45.288Z,36.10
2022-07-27T06:49:14.968Z,34.53
2022-07-27T06:51:44.269Z,32.55
2022-07-27T06:54:13.501Z,30.25
2022-07-27T06:56:42.453Z,34.15
2022-07-27T06:59:11.697Z,34.28
2022-07-27T07:01:43.403Z,31.38
2022-07-27T07:04:15.827Z,30.65
2022-07-27T07:06:45.656Z,33.22
2022-07-27T07:09:15.101Z,33.63
2022-07-27T07:11:44.542Z,31.77
2022-07-27T07:14:13.506Z,28.08
2022-07-27T07:16:44.777Z,28.67
2022-07-27T07:19:14.719Z,28.77
2022-07-27T07:21:44.707Z,30.65
2022-07-27T07:24:14.986Z,25.10
2022-07-27T07:26:43.956Z,23.92
2022-07-27T07:29:13.336Z,21.75
2022-07-27T07:31:42.790Z,24.70
2022-07-27T07:34:12.581Z,23.70
2022-07-27T07:36:42.104Z,19.63
2022-07-27T07:39:11.522Z,18.55
2022-07-27T07:41:40.859Z,21.58
2022-07-27T07:44:10.983Z,22.40
2022-07-27T07:46:45.262Z,31.13
2022-07-27T07:49:16.313Z,23.05
2022-07-27T07:51:46.181Z,22.40
2022-07-27T07:54:15.142Z,21.17
2022-07-27T07:56:44.261Z,27.55
2022-07-27T07:59:13.530Z,25.42
2022-07-27T08:01:42.925Z,24.83
2022-07-27T08:04:11.898Z,21.40
2022-07-27T08:06:41.334Z,22.40
2022-07-27T08:09:10.428Z,20.23
2022-07-27T08:11:39.928Z,21.48
2022-07-27T08:14:09.419Z,25.73
2022-07-27T08:16:38.846Z,21.42
2022-07-27T08:19:09.691Z,20.70
2022-07-27T08:21:39.325Z,18.70
2022-07-27T08:24:08.555Z,17.70
2022-07-27T08:26:37.697Z,21.83
2022-07-27T08:29:11.364Z,21.98
2022-07-27T08:31:52.081Z,23.73
2022-07-27T08:34:22.681Z,27.85
2022-07-27T08:36:52.498Z,21.42
2022-07-27T08:40:05.749Z,18.48
2022-07-27T08:42:13.237Z,21.52
2022-07-27T08:44:43.754Z,30.30
2022-07-27T08:47:16.380Z,23.90
2022-07-27T08:49:49.501Z,22.38
2022-07-27T08:52:21.168Z,22.75
2022-07-27T08:54:51.545Z,23.33
2022-07-27T08:57:20.790Z,19.25
2022-07-27T08:59:51.381Z,19.10
2022-07-27T09:02:22.819Z,22.35
2022-07-27T09:04:52.025Z,18.23
2022-07-27T09:07:32.740Z,25.50
2022-07-27T09:10:01.849Z,20.75
2022-07-27T09:12:32.986Z,18.00
2022-07-27T09:15:14.257Z,22.75
2022-07-27T09:17:49.841Z,21.50
2022-07-27T09:20:22.140Z,21.92
2022-07-27T09:22:58.273Z,20.00
2022-07-27T09:28:32.253Z,22.95
2022-07-27T09:31:10.379Z,32.17
2022-07-27T09:33:51.817Z,29.58
2022-07-27T09:36:23.449Z,26.13
2022-07-27T09:39:04.081Z,23.17
2022-07-27T09:41:47.851Z,24.13
2022-07-27T09:44:42.188Z,29.38
2022-07-27T09:47:27.823Z,33.50
2022-07-27T09:50:18.256Z,23.70
2022-07-27T09:52:48.305Z,26.40
2022-07-27T09:55:22.542Z,23.80
2022-07-27T09:57:59.834Z,24.63
2022-07-27T10:00:29.018Z,25.38
2022-07-27T10:02:58.127Z,24.85
2022-07-27T10:05:27.522Z,28.88
2022-07-27T10:07:56.841Z,36.53
2022-07-27T10:10:26.306Z,37.60
2022-07-27T10:12:55.744Z,46.15
2022-07-27T10:15:26.484Z,57.13
2022-07-27T10:18:10.272Z,61.72
2022-07-27T10:20:47.809Z,50.97
2022-07-27T10:23:31.826Z,53.55
2022-07-27T10:26:21.634Z,34.17
2022-07-27T10:29:00.552Z,39.38
2022-07-27T10:31:36.103Z,47.83
2022-07-27T10:34:08.425Z,52.17
2022-07-27T10:39:08.144Z,41.35
2022-07-27T10:41:42.538Z,41.33
2022-07-27T10:44:23.140Z,39.83
2022-07-27T10:47:04.831Z,48.67
2022-07-27T10:49:40.637Z,52.88
2022-07-27T10:52:49.691Z,53.28
2022-07-27T10:55:34.955Z,61.42
2022-07-27T10:58:16.832Z,49.75
2022-07-27T11:00:55.412Z,41.70
2022-07-27T11:03:41.448Z,43.85
2022-07-27T11:07:09.908Z,38.65
2022-07-27T11:10:00.201Z,44.20
2022-07-27T11:12:01.724Z,42.67
2022-07-27T11:14:31.917Z,43.97
2022-07-27T11:17:32.212Z,51.83
2022-07-27T11:19:59.563Z,39.83
2022-07-27T11:22:53.682Z,44.53
2022-07-27T11:25:20.702Z,41.65
2022-07-27T11:27:51.940Z,31.38
2022-07-27T11:30:29.695Z,26.60
2022-07-27T11:32:58.849Z,79.43
2022-07-27T11:35:27.925Z,39.33
2022-07-27T11:38:02.510Z,92.78
2022-07-27T11:43:45.529Z,19.70
2022-07-27T11:46:23.846Z,16.23
2022-07-27T11:49:09.984Z,12.20
2022-07-27T11:51:46.150Z,18.65
2022-07-27T11:54:46.628Z,13.68
2022-07-27T11:57:17.875Z,19.95
2022-07-27T11:59:48.001Z,13.73
2022-07-27T12:02:20.926Z,14.68
2022-07-27T12:04:52.636Z,17.13
2022-07-27T12:07:29.286Z,15.05
2022-07-27T12:10:01.597Z,12.10
2022-07-27T12:15:44.635Z,15.88
2022-07-27T12:18:05.858Z,17.85
2022-07-27T12:20:36.758Z,21.80
2022-07-27T12:23:08.346Z,21.63
2022-07-27T12:25:38.648Z,15.75
2022-07-27T12:28:19.224Z,21.52
2022-07-27T12:30:51.491Z,18.75
2022-07-27T12:35:55.696Z,17.88
2022-07-27T12:38:26.128Z,28.05
2022-07-27T12:41:00.803Z,28.02
2022-07-27T12:43:30.103Z,26.48
2022-07-27T12:46:00.101Z,26.52
2022-07-27T12:48:43.533Z,25.30
2022-07-27T12:51:15.208Z,19.88
2022-07-27T12:53:45.569Z,19.90
2022-07-27T12:56:14.872Z,17.48
2022-07-27T12:59:03.829Z,15.50
2022-07-27T13:01:33.458Z,17.88
2022-07-27T13:04:02.626Z,16.25
2022-07-27T13:06:32.228Z,17.95
2022-07-27T13:09:01.127Z,18.58
2022-07-27T13:11:30.655Z,17.95
2022-07-27T13:13:59.753Z,14.57
2022-07-27T13:16:28.762Z,15.95
2022-07-27T13:18:58.298Z,16.83
2022-07-27T13:21:27.743Z,26.67
2022-07-27T13:23:56.909Z,21.15
2022-07-27T13:26:25.821Z,22.58
2022-07-27T13:28:57.107Z,18.55
2022-07-27T13:31:26.041Z,17.52
2022-07-27T13:33:55.537Z,22.58
2022-07-27T13:36:25.014Z,28.33
2022-07-27T13:38:54.527Z,30.52
2022-07-27T13:41:23.546Z,22.50
2022-07-27T13:43:52.539Z,27.65
2022-07-27T13:46:21.521Z,22.42
2022-07-27T13:48:50.560Z,25.73
2022-07-27T13:51:19.467Z,33.70
2022-07-27T13:53:49.410Z,31.35
2022-07-27T13:56:18.413Z,29.27
2022-07-27T13:58:53.098Z,35.15
2022-07-27T14:01:24.076Z,27.77
2022-07-27T14:03:53.841Z,28.52
2022-07-27T14:06:23.752Z,29.13
2022-07-27T14:08:57.564Z,30.13
2022-07-27T14:11:26.574Z,26.67
2022-07-27T14:13:55.775Z,30.65
2022-07-27T14:16:25.390Z,25.98
2022-07-27T14:18:54.735Z,37.28
2022-07-27T14:21:24.588Z,38.55
2022-07-27T14:23:54.102Z,31.25
2022-07-27T14:26:23.277Z,34.45
2022-07-27T14:28:53.810Z,30.35
2022-07-27T14:31:22.856Z,38.00
2022-07-27T14:33:51.655Z,31.08
2022-07-27T14:36:21.160Z,26.45
2022-07-27T14:38:50.037Z,35.45
2022-07-27T14:41:18.990Z,31.58
2022-07-27T14:43:48.622Z,32.30
2022-07-27T14:46:17.467Z,35.70
2022-07-27T14:49:05.738Z,31.90
2022-07-27T14:51:37.579Z,39.92
2022-07-27T14:54:06.543Z,34.45
2022-07-27T14:56:37.529Z,38.90
2022-07-27T14:59:06.795Z,40.42
2022-07-27T15:01:35.804Z,38.00
2022-07-27T15:04:04.849Z,31.50
2022-07-27T15:06:38.915Z,34.38
2022-07-27T15:09:08.875Z,30.88
2022-07-27T15:11:38.896Z,36.45
2022-07-27T15:14:07.960Z,36.10
2022-07-27T15:16:36.780Z,46.58
2022-07-27T15:19:06.055Z,42.33
2022-07-27T15:21:35.381Z,38.35
2022-07-27T15:24:04.643Z,45.72
2022-07-27T15:26:34.029Z,45.03
2022-07-27T15:29:03.491Z,45.90
2022-07-27T15:31:32.548Z,39.25
2022-07-27T15:34:02.766Z,39.50
2022-07-27T15:36:34.527Z,42.95
2022-07-27T15:39:05.604Z,42.47
2022-07-27T15:41:35.633Z,46.38
2022-07-27T15:44:05.796Z,48.55
2022-07-27T15:46:35.501Z,50.90
2022-07-27T15:49:04.831Z,45.95
2022-07-27T15:51:34.058Z,42.53
2022-07-27T15:54:02.795Z,39.78
2022-07-27T15:56:31.816Z,42.97
2022-07-27T15:59:00.991Z,45.72
2022-07-27T16:01:35.107Z,42.40
2022-07-27T16:04:06.499Z,44.47
2022-07-27T16:06:39.104Z,41.70
2022-07-27T16:09:10.246Z,37.95
2022-07-27T16:11:42.683Z,49.60
2022-07-27T16:14:11.637Z,39.08
2022-07-27T16:16:41.506Z,40.30
2022-07-27T16:19:14.360Z,42.60
2022-07-27T16:21:54.089Z,36.20
2022-07-27T16:24:27.317Z,52.67
2022-07-27T16:26:56.449Z,39.03
2022-07-27T16:29:25.385Z,43.15
2022-07-27T16:31:59.280Z,42.15
2022-07-27T16:34:30.490Z,38.65
2022-07-27T16:37:00.800Z,48.07
2022-07-27T16:39:29.743Z,40.45
2022-07-27T16:41:59.460Z,44.58
2022-07-27T16:44:28.618Z,42.80
2022-07-27T16:46:58.830Z,45.72
2022-07-27T16:49:33.743Z,51.60
2022-07-27T16:52:07.655Z,52.15
2022-07-27T16:54:39.519Z,51.22
2022-07-27T16:57:10.457Z,55.03
2022-07-27T16:59:40.136Z,60.92
2022-07-27T17:02:09.173Z,76.90
2022-07-27T17:04:38.500Z,88.30
2022-07-27T17:07:12.494Z,95.53
2022-07-27T17:09:42.715Z,77.95
2022-07-27T17:12:11.695Z,71.75
2022-07-27T17:14:47.482Z,62.38
2022-07-27T17:17:16.748Z,53.03
2022-07-27T17:19:45.647Z,55.58
2022-07-27T17:22:14.852Z,58.35
2022-07-27T17:24:43.757Z,57.15
2022-07-27T17:27:13.778Z,48.75
2022-07-27T17:29:44.428Z,48.47
2022-07-27T17:32:13.754Z,44.88
2022-07-27T17:34:44.586Z,41.03
2022-07-27T17:37:14.368Z,38.53
2022-07-27T17:39:43.368Z,44.45
2022-07-27T17:42:12.594Z,38.42
2022-07-27T17:44:41.700Z,52.60
2022-07-27T17:47:11.178Z,43.28
2022-07-27T17:49:40.302Z,42.15
2022-07-27T17:52:10.076Z,47.78
2022-07-27T17:54:41.081Z,41.42
2022-07-27T17:57:10.411Z,40.88
2022-07-27T17:59:39.834Z,41.67
2022-07-27T18:02:09.679Z,39.65
2022-07-27T18:04:39.661Z,44.35
2022-07-27T18:07:09.238Z,44.47
2022-07-27T18:09:38.112Z,40.50
2022-07-27T18:12:08.558Z,43.00
2022-07-27T18:14:39.267Z,44.28
2022-07-27T18:17:08.665Z,38.95
2022-07-27T18:19:37.425Z,42.55
2022-07-27T18:22:06.579Z,45.55
2022-07-27T18:24:36.641Z,45.42
2022-07-27T18:27:06.744Z,40.20
2022-07-27T18:29:35.476Z,44.55
2022-07-27T18:32:04.407Z,41.60
2022-07-27T18:34:33.717Z,43.90
2022-07-27T18:37:05.121Z,44.08
2022-07-27T18:39:34.289Z,47.55
2022-07-27T18:42:04.555Z,42.38
2022-07-27T18:44:38.713Z,47.53
2022-07-27T18:47:08.234Z,46.15
2022-07-27T18:49:37.438Z,53.63
2022-07-27T18:52:07.763Z,43.13
2022-07-27T18:54:36.723Z,49.65
2022-07-27T18:57:06.496Z,55.08
2022-07-27T18:59:40.967Z,53.90
2022-07-27T19:02:10.751Z,54.15
2022-07-27T19:04:40.469Z,57.17
2022-07-27T19:07:13.834Z,47.92
2022-07-27T19:09:44.966Z,42.05
2022-07-27T19:12:13.856Z,48.35
2022-07-27T19:14:42.953Z,46.95
2022-07-27T19:17:15.030Z,43.25
2022-07-27T19:19:44.367Z,44.78
2022-07-27T19:22:14.145Z,39.78
2022-07-27T19:24:43.176Z,45.42
2022-07-27T19:27:12.320Z,44.10
2022-07-27T19:29:41.967Z,44.30
2022-07-27T19:32:11.846Z,41.00
2022-07-27T19:34:41.727Z,41.13
2022-07-27T19:37:10.845Z,47.88
2022-07-27T19:40:02.361Z,40.80
2022-07-27T19:42:28.828Z,38.67
2022-07-27T19:44:57.782Z,41.90
2022-07-27T19:47:26.681Z,46.03
2022-07-27T19:49:55.674Z,45.65
2022-07-27T19:52:24.639Z,42.38
2022-07-27T19:54:53.673Z,38.92
2022-07-27T19:57:22.960Z,43.80
2022-07-27T19:59:56.491Z,45.72
2022-07-27T20:02:26.492Z,41.90
2022-07-27T20:04:55.378Z,42.35
2022-07-27T20:07:24.385Z,40.78
2022-07-27T20:09:53.484Z,40.08
2022-07-27T20:12:22.518Z,40.80
2022-07-27T20:14:52.038Z,44.97
2022-07-27T20:17:21.134Z,41.33
2022-07-27T20:19:50.188Z,37.58
2022-07-27T20:22:19.333Z,41.63
2022-07-27T20:24:48.434Z,38.78
2022-07-27T20:27:17.413Z,41.83
2022-07-27T20:29:47.164Z,36.35
2022-07-27T20:32:15.917Z,37.70
2022-07-27T20:34:44.839Z,39.20
2022-07-27T20:37:15.096Z,45.30
2022-07-27T20:39:43.958Z,46.40
2022-07-27T20:42:12.946Z,39.08
2022-07-27T20:44:42.164Z,40.70
2022-07-27T20:47:11.538Z,35.55
2022-07-27T20:49:40.804Z,40.75
2022-07-27T20:52:10.776Z,43.50
2022-07-27T20:54:39.861Z,38.25
2022-07-27T20:57:09.072Z,41.90
2022-07-27T20:59:38.015Z,47.55
2022-07-27T21:02:08.441Z,40.83
2022-07-27T21:04:37.652Z,45.58
2022-07-27T21:07:06.418Z,41.38
2022-07-27T21:09:35.303Z,42.90
2022-07-27T21:12:04.744Z,36.90
2022-07-27T21:14:33.523Z,39.33
2022-07-27T21:17:02.512Z,47.10
2022-07-27T21:19:31.778Z,41.47
2022-07-27T21:22:00.832Z,46.83
2022-07-27T21:24:30.406Z,39.40
2022-07-27T21:27:04.496Z,44.80
2022-07-27T21:29:34.166Z,41.45
2022-07-27T21:32:03.315Z,42.75
2022-07-27T21:34:32.265Z,69.65
2022-07-27T21:37:01.019Z,70.90
2022-07-27T21:39:30.181Z,76.50
2022-07-27T21:42:02.122Z,71.45
2022-07-27T21:44:32.143Z,87.05
2022-07-27T21:47:01.160Z,81.25
2022-07-27T21:49:34.503Z,77.05
2022-07-27T21:52:04.046Z,76.55
2022-07-27T21:54:33.089Z,76.05
2022-07-27T21:57:01.983Z,70.57
2022-07-27T21:59:30.901Z,65.45
2022-07-27T22:02:01.995Z,63.30
2022-07-27T22:04:31.190Z,54.28
2022-07-27T22:07:00.179Z,56.58
2022-07-27T22:09:29.938Z,66.68
2022-07-27T22:11:59.085Z,56.08
2022-07-27T22:14:28.053Z,51.78
2022-07-27T22:16:57.625Z,49.63
2022-07-27T22:19:26.565Z,51.85
2022-07-27T22:21:55.494Z,52.50
2022-07-27T22:24:24.701Z,46.75
2022-07-27T22:26:53.497Z,48.28
2022-07-27T22:29:22.380Z,53.22
2022-07-27T22:31:52.025Z,53.50
2022-07-27T22:34:23.297Z,53.65
2022-07-27T22:36:52.911Z,52.33
2022-07-27T22:39:22.045Z,61.65
2022-07-27T22:41:50.825Z,56.22
2022-07-27T22:44:20.416Z,49.97
2022-07-27T22:46:49.873Z,52.90
2022-07-27T22:49:19.113Z,57.75
2022-07-27T22:51:49.835Z,54.88
2022-07-27T22:54:22.311Z,50.28
2022-07-27T22:56:51.568Z,58.60
2022-07-27T22:59:21.942Z,54.80
2022-07-27T23:01:50.978Z,54.28
2022-07-27T23:04:19.951Z,55.95
2022-07-27T23:06:49.080Z,56.50
2022-07-27T23:09:18.083Z,62.45
2022-07-27T23:11:47.302Z,54.58
2022-07-27T23:14:16.668Z,59.50
2022-07-27T23:16:46.525Z,54.55
2022-07-27T23:19:15.665Z,55.35
2022-07-27T23:21:44.377Z,67.78
2022-07-27T23:24:14.418Z,65.18
2022-07-27T23:26:44.253Z,62.22
2022-07-27T23:29:13.479Z,61.42
2022-07-27T23:31:42.537Z,56.25
2022-07-27T23:34:12.353Z,60.55
2022-07-27T23:36:44.839Z,60.95
2022-07-27T23:39:13.745Z,55.88
2022-07-27T23:41:45.372Z,70.82
2022-07-27T23:44:18.870Z,60.05
2022-07-27T23:46:48.096Z,56.67
2022-07-27T23:49:17.201Z,57.25
2022-07-27T23:51:46.968Z,58.88
2022-07-27T23:54:16.498Z,61.22
2022-07-27T23:56:45.716Z,62.03
2022-07-27T23:59:15.311Z,58.15
